createdAt,value
2019-06-07T00:00:01.482Z,85.09
2019-06-07T00:00:39.159Z,85.07
2019-06-07T00:01:01.376Z,85.06
2019-06-07T00:01:33.256Z,85.09
2019-06-07T00:02:01.402Z,85.09
2019-06-07T00:02:31.302Z,85.08
2019-06-07T00:03:01.369Z,85.09
2019-06-07T00:03:31.314Z,85.19
2019-06-07T00:04:01.377Z,85.11
2019-06-07T00:04:34.173Z,85.15
2019-06-07T00:05:01.369Z,85.12
2019-06-07T00:05:31.357Z,85.16
2019-06-07T00:06:01.423Z,85.22
2019-06-07T00:06:31.323Z,85.22
2019-06-07T00:07:01.377Z,85.29
2019-06-07T00:07:31.321Z,85.27
2019-06-07T00:08:07.303Z,85.32
2019-06-07T00:08:31.310Z,85.36
2019-06-07T00:09:01.431Z,85.40
2019-06-07T00:09:31.315Z,85.51
2019-06-07T00:10:01.385Z,85.51
2019-06-07T00:10:36.347Z,85.56
2019-06-07T00:11:01.405Z,85.63
2019-06-07T00:11:31.316Z,85.61
2019-06-07T00:12:03.240Z,85.64
2019-06-07T00:12:31.321Z,85.71
2019-06-07T00:13:01.378Z,85.74
2019-06-07T00:13:31.316Z,85.75
2019-06-07T00:14:01.375Z,85.75
2019-06-07T00:14:31.474Z,85.76
2019-06-07T00:15:04.122Z,85.82
2019-06-07T00:15:31.321Z,85.84
2019-06-07T00:16:01.383Z,85.94
2019-06-07T00:16:31.330Z,85.97
2019-06-07T00:17:01.380Z,86.00
2019-06-07T00:17:31.321Z,86.07
2019-06-07T00:18:01.376Z,86.09
2019-06-07T00:18:31.319Z,86.09
2019-06-07T00:19:01.379Z,86.08
2019-06-07T00:19:31.312Z,86.06
2019-06-07T00:20:01.389Z,86.03
2019-06-07T00:20:31.339Z,86.05
2019-06-07T00:21:01.377Z,86.07
2019-06-07T00:22:31.489Z,86.09
2019-06-07T00:22:34.167Z,86.11
2019-06-07T00:23:01.371Z,86.13
2019-06-07T00:23:31.312Z,86.16
2019-06-07T00:24:01.372Z,86.19
2019-06-07T00:24:31.313Z,86.23
2019-06-07T00:25:01.381Z,86.20
2019-06-07T00:25:34.277Z,86.14
2019-06-07T00:26:01.380Z,86.18
2019-06-07T00:26:31.330Z,86.14
2019-06-07T00:27:01.441Z,86.10
2019-06-07T00:27:31.318Z,86.10
2019-06-07T00:28:01.377Z,86.16
2019-06-07T00:28:31.325Z,86.12
2019-06-07T00:29:01.414Z,86.14
2019-06-07T00:29:31.320Z,86.18
2019-06-07T00:30:29.455Z,86.16
2019-06-07T00:30:45.595Z,86.14
2019-06-07T00:31:01.432Z,86.16
2019-06-07T00:31:31.437Z,86.18
2019-06-07T00:32:01.374Z,86.27
2019-06-07T00:32:31.364Z,86.37
2019-06-07T00:33:03.260Z,86.39
2019-06-07T00:33:31.329Z,86.42
2019-06-07T00:34:01.383Z,86.39
2019-06-07T00:34:31.322Z,86.42
2019-06-07T00:35:01.386Z,86.40
2019-06-07T00:35:31.322Z,86.36
2019-06-07T00:36:04.227Z,86.20
2019-06-07T00:36:31.318Z,86.19
2019-06-07T00:37:01.385Z,86.17
2019-06-07T00:37:31.318Z,86.11
2019-06-07T00:38:01.378Z,86.13
2019-06-07T00:38:31.343Z,86.12
2019-06-07T00:39:01.394Z,86.20
2019-06-07T00:39:31.326Z,86.29
2019-06-07T00:40:13.816Z,86.27
2019-06-07T00:40:33.322Z,86.28
2019-06-07T00:41:01.376Z,86.24
2019-06-07T00:41:31.467Z,86.26
2019-06-07T00:42:01.392Z,86.20
2019-06-07T00:42:31.323Z,86.19
2019-06-07T00:43:01.378Z,86.27
2019-06-07T00:43:33.162Z,86.26
2019-06-07T00:44:01.385Z,86.32
2019-06-07T00:44:31.326Z,86.32
2019-06-07T00:45:01.389Z,86.36
2019-06-07T00:45:31.367Z,86.39
2019-06-07T00:46:01.392Z,86.41
2019-06-07T00:46:34.229Z,86.50
2019-06-07T00:47:01.384Z,86.50
2019-06-07T00:47:31.325Z,86.51
2019-06-07T00:48:01.411Z,86.51
2019-06-07T00:48:33.390Z,86.46
2019-06-07T00:49:01.378Z,86.46
2019-06-07T00:49:40.862Z,86.44
2019-06-07T00:50:01.385Z,86.43
2019-06-07T00:50:31.322Z,86.45
2019-06-07T00:51:01.384Z,86.50
2019-06-07T00:51:49.407Z,86.53
2019-06-07T00:52:01.437Z,86.61
2019-06-07T00:53:28.759Z,86.64
2019-06-07T00:53:33.330Z,86.70
2019-06-07T00:54:03.099Z,86.70
2019-06-07T00:54:31.326Z,86.75
2019-06-07T00:55:01.387Z,86.71
2019-06-07T00:55:31.334Z,86.79
2019-06-07T00:56:01.427Z,86.79
2019-06-07T00:56:31.326Z,86.78
2019-06-07T00:57:04.119Z,86.82
2019-06-07T00:57:31.326Z,86.85
2019-06-07T00:58:06.222Z,86.89
2019-06-07T00:58:31.330Z,86.85
2019-06-07T00:59:11.021Z,86.84
2019-06-07T00:59:31.326Z,86.87
2019-06-07T01:00:01.423Z,86.95
2019-06-07T01:00:31.325Z,87.02
2019-06-07T01:01:01.387Z,87.03
2019-06-07T01:01:31.327Z,87.00
2019-06-07T01:02:01.385Z,87.00
2019-06-07T01:02:32.342Z,87.00
2019-06-07T01:03:01.385Z,87.00
2019-06-07T01:03:31.327Z,87.02
2019-06-07T01:04:01.386Z,87.04
2019-06-07T01:04:33.152Z,87.04
2019-06-07T01:05:01.389Z,87.07
2019-06-07T01:05:35.129Z,87.05
2019-06-07T01:06:01.392Z,86.99
2019-06-07T01:06:31.340Z,87.03
2019-06-07T01:07:01.383Z,87.10
2019-06-07T01:07:34.217Z,87.14
2019-06-07T01:08:01.393Z,87.14
2019-06-07T01:08:31.439Z,87.13
2019-06-07T01:09:01.394Z,87.11
2019-06-07T01:09:31.324Z,87.10
2019-06-07T01:10:01.386Z,87.10
2019-06-07T01:10:52.105Z,87.04
2019-06-07T01:11:01.386Z,87.12
2019-06-07T01:11:31.323Z,87.05
2019-06-07T01:12:01.389Z,87.11
2019-06-07T01:12:31.389Z,87.09
2019-06-07T01:13:01.396Z,87.06
2019-06-07T01:13:31.335Z,87.13
2019-06-07T01:14:01.381Z,87.17
2019-06-07T01:14:31.398Z,87.17
2019-06-07T01:15:03.254Z,87.21
2019-06-07T01:15:31.333Z,87.21
2019-06-07T01:16:01.391Z,87.16
2019-06-07T01:16:55.217Z,87.20
2019-06-07T01:17:22.418Z,87.21
2019-06-07T01:17:42.069Z,87.19
2019-06-07T01:18:38.115Z,87.22
2019-06-07T01:18:40.840Z,87.19
2019-06-07T01:19:01.487Z,87.21
2019-06-07T01:19:31.338Z,87.15
2019-06-07T01:20:01.392Z,87.12
2019-06-07T01:20:31.329Z,87.11
2019-06-07T01:21:01.433Z,87.21
2019-06-07T01:21:31.333Z,87.26
2019-06-07T01:22:01.384Z,87.24
2019-06-07T01:22:31.333Z,87.24
2019-06-07T01:23:01.393Z,87.15
2019-06-07T01:24:07.817Z,87.10
2019-06-07T01:24:11.745Z,87.10
2019-06-07T01:24:31.328Z,87.06
2019-06-07T01:25:01.409Z,87.16
2019-06-07T01:25:33.155Z,87.20
2019-06-07T01:26:01.399Z,87.15
2019-06-07T01:26:31.327Z,87.15
2019-06-07T01:27:01.392Z,87.13
2019-06-07T01:27:31.338Z,87.03
2019-06-07T01:28:01.393Z,87.05
2019-06-07T01:28:34.347Z,87.03
2019-06-07T01:29:01.402Z,87.03
2019-06-07T01:29:32.335Z,87.04
2019-06-07T01:30:01.402Z,87.05
2019-06-07T01:30:31.401Z,87.03
2019-06-07T01:31:01.396Z,87.03
2019-06-07T01:31:32.367Z,87.07
2019-06-07T01:32:01.395Z,87.07
2019-06-07T01:32:32.357Z,86.98
2019-06-07T01:33:01.390Z,86.94
2019-06-07T01:33:50.145Z,86.97
2019-06-07T01:34:01.430Z,86.98
2019-06-07T01:34:31.335Z,87.03
2019-06-07T01:35:01.440Z,86.95
2019-06-07T01:35:31.578Z,86.83
2019-06-07T01:36:03.207Z,86.76
2019-06-07T01:36:32.348Z,86.70
2019-06-07T01:37:01.403Z,86.61
2019-06-07T01:37:31.340Z,86.65
2019-06-07T01:38:01.400Z,86.62
2019-06-07T01:38:31.335Z,86.53
2019-06-07T01:39:04.299Z,86.47
2019-06-07T01:39:32.342Z,86.40
2019-06-07T01:40:01.398Z,86.36
2019-06-07T01:40:33.345Z,86.35
2019-06-07T01:41:01.403Z,86.29
2019-06-07T01:41:31.408Z,86.30
2019-06-07T01:42:01.440Z,86.33
2019-06-07T01:42:32.338Z,86.34
2019-06-07T01:43:01.399Z,86.29
2019-06-07T01:43:32.370Z,86.23
2019-06-07T01:44:01.495Z,86.19
2019-06-07T01:44:32.390Z,86.18
2019-06-07T01:45:01.405Z,86.18
2019-06-07T01:45:32.343Z,86.17
2019-06-07T01:46:01.412Z,86.19
2019-06-07T01:46:33.298Z,86.20
2019-06-07T01:47:01.400Z,86.26
2019-06-07T01:47:37.089Z,86.30
2019-06-07T01:48:01.439Z,86.34
2019-06-07T01:48:48.819Z,86.37
2019-06-07T01:49:01.399Z,86.42
2019-06-07T01:49:34.197Z,86.47
2019-06-07T01:50:01.421Z,86.52
2019-06-07T01:50:31.347Z,86.51
2019-06-07T01:51:01.393Z,86.53
2019-06-07T01:51:31.349Z,86.56
2019-06-07T01:52:01.401Z,86.64
2019-06-07T01:52:31.338Z,86.67
2019-06-07T01:53:01.398Z,86.71
2019-06-07T01:53:32.348Z,86.65
2019-06-07T01:54:48.464Z,86.75
2019-06-07T01:54:57.096Z,86.73
2019-06-07T01:55:01.400Z,86.74
2019-06-07T01:55:33.345Z,86.76
2019-06-07T01:56:01.414Z,86.80
2019-06-07T01:56:31.517Z,86.87
2019-06-07T01:57:03.099Z,86.89
2019-06-07T01:57:45.273Z,86.91
2019-06-07T01:58:05.139Z,86.91
2019-06-07T01:58:31.357Z,86.93
2019-06-07T01:59:01.399Z,86.96
2019-06-07T01:59:32.499Z,86.99
2019-06-07T02:00:04.240Z,86.97
2019-06-07T02:00:33.359Z,87.05
2019-06-07T02:01:01.400Z,87.07
2019-06-07T02:01:35.060Z,87.05
2019-06-07T02:02:01.407Z,87.04
2019-06-07T02:02:32.404Z,87.06
2019-06-07T02:03:01.408Z,87.03
2019-06-07T02:03:33.656Z,87.06
2019-06-07T02:04:01.398Z,87.01
2019-06-07T02:04:33.734Z,86.99
2019-06-07T02:05:01.407Z,87.02
2019-06-07T02:05:33.351Z,87.03
2019-06-07T02:06:01.409Z,87.06
2019-06-07T02:06:32.417Z,87.06
2019-06-07T02:07:01.404Z,87.09
2019-06-07T02:07:34.184Z,87.06
2019-06-07T02:08:01.403Z,87.03
2019-06-07T02:08:37.172Z,87.00
2019-06-07T02:09:01.487Z,86.99
2019-06-07T02:09:32.420Z,87.06
2019-06-07T02:10:01.461Z,87.07
2019-06-07T02:10:34.240Z,87.09
2019-06-07T02:11:01.414Z,87.17
2019-06-07T02:11:33.598Z,87.20
2019-06-07T02:12:01.408Z,87.23
2019-06-07T02:12:41.006Z,87.27
2019-06-07T02:13:01.437Z,87.34
2019-06-07T02:13:31.338Z,87.43
2019-06-07T02:14:01.408Z,87.38
2019-06-07T02:14:33.994Z,87.41
2019-06-07T02:15:01.427Z,87.42
2019-06-07T02:15:36.525Z,87.46
2019-06-07T02:16:01.438Z,87.45
2019-06-07T02:16:33.353Z,87.53
2019-06-07T02:17:01.424Z,87.53
2019-06-07T02:17:33.458Z,87.49
2019-06-07T02:18:03.262Z,87.56
2019-06-07T02:18:35.002Z,87.53
2019-06-07T02:19:07.235Z,87.58
2019-06-07T02:19:33.679Z,87.56
2019-06-07T02:20:01.408Z,87.59
2019-06-07T02:20:34.362Z,87.66
2019-06-07T02:21:04.312Z,87.65
2019-06-07T02:21:34.297Z,87.70
2019-06-07T02:22:01.411Z,87.72
2019-06-07T02:22:33.348Z,87.74
2019-06-07T02:23:01.408Z,87.79
2019-06-07T02:23:33.765Z,87.82
2019-06-07T02:24:01.409Z,87.87
2019-06-07T02:24:35.760Z,87.92
2019-06-07T02:25:34.925Z,87.93
2019-06-07T02:25:42.204Z,88.00
2019-06-07T02:26:01.403Z,88.04
2019-06-07T02:26:33.348Z,88.07
2019-06-07T02:27:01.413Z,88.17
2019-06-07T02:27:33.384Z,88.21
2019-06-07T02:28:26.351Z,88.31
2019-06-07T02:28:44.841Z,88.33
2019-06-07T02:29:01.426Z,88.38
2019-06-07T02:29:37.236Z,88.37
2019-06-07T02:30:35.021Z,88.38
2019-06-07T02:30:45.627Z,88.44
2019-06-07T02:31:01.407Z,88.44
2019-06-07T02:31:39.747Z,88.43
2019-06-07T02:32:01.410Z,88.49
2019-06-07T02:32:37.010Z,88.45
2019-06-07T02:33:01.410Z,88.45
2019-06-07T02:33:37.435Z,88.46
2019-06-07T02:34:01.416Z,88.45
2019-06-07T02:34:38.495Z,88.47
2019-06-07T02:35:01.434Z,88.44
2019-06-07T02:35:39.922Z,88.40
2019-06-07T02:36:01.441Z,88.44
2019-06-07T02:36:40.810Z,88.43
2019-06-07T02:37:01.483Z,88.46
2019-06-07T02:37:36.471Z,88.52
2019-06-07T02:38:01.485Z,88.54
2019-06-07T02:38:37.117Z,88.61
2019-06-07T02:39:03.191Z,88.71
2019-06-07T02:39:38.007Z,88.71
2019-06-07T02:40:01.416Z,88.74
2019-06-07T02:40:37.097Z,88.73
2019-06-07T02:41:01.425Z,88.68
2019-06-07T02:41:38.743Z,88.65
2019-06-07T02:42:04.333Z,88.65
2019-06-07T02:42:36.473Z,88.71
2019-06-07T02:43:01.412Z,88.73
2019-06-07T02:43:36.841Z,88.76
2019-06-07T02:44:01.418Z,88.80
2019-06-07T02:44:38.892Z,88.86
2019-06-07T02:45:01.415Z,88.92
2019-06-07T02:45:42.101Z,88.89
2019-06-07T02:46:23.796Z,88.93
2019-06-07T02:46:44.668Z,88.95
2019-06-07T02:47:01.409Z,88.97
2019-06-07T02:47:36.010Z,88.96
2019-06-07T02:48:01.418Z,88.98
2019-06-07T02:48:39.418Z,89.03
2019-06-07T02:49:01.407Z,88.97
2019-06-07T02:49:40.752Z,88.93
2019-06-07T02:50:01.411Z,88.90
2019-06-07T02:50:38.661Z,88.89
2019-06-07T02:51:01.412Z,88.87
2019-06-07T02:51:40.696Z,88.87
2019-06-07T02:52:01.416Z,88.83
2019-06-07T02:52:40.435Z,88.91
2019-06-07T02:53:01.420Z,88.90
2019-06-07T02:53:39.960Z,88.94
2019-06-07T02:54:01.426Z,88.97
2019-06-07T02:54:36.768Z,89.03
2019-06-07T02:55:01.416Z,89.02
2019-06-07T02:55:45.884Z,89.03
2019-06-07T02:56:43.840Z,89.11
2019-06-07T02:57:01.412Z,89.19
2019-06-07T02:57:36.678Z,89.20
2019-06-07T02:58:01.409Z,89.24
2019-06-07T02:58:37.791Z,89.26
2019-06-07T02:59:01.573Z,89.27
2019-06-07T02:59:54.227Z,89.30
2019-06-07T03:00:39.919Z,89.33
2019-06-07T03:00:58.442Z,89.34
2019-06-07T03:01:09.619Z,89.42
2019-06-07T03:01:39.276Z,89.44
2019-06-07T03:02:01.437Z,89.45
2019-06-07T03:02:40.417Z,89.47
2019-06-07T03:03:04.576Z,89.46
2019-06-07T03:03:36.689Z,89.53
2019-06-07T03:04:01.415Z,89.54
2019-06-07T03:04:38.169Z,89.51
2019-06-07T03:05:01.472Z,89.57
2019-06-07T03:05:35.102Z,89.58
2019-06-07T03:06:02.763Z,89.59
2019-06-07T03:06:36.868Z,89.62
2019-06-07T03:07:01.438Z,89.60
2019-06-07T03:07:38.485Z,89.64
2019-06-07T03:08:01.425Z,89.67
2019-06-07T03:08:35.494Z,89.69
2019-06-07T03:09:01.441Z,89.72
2019-06-07T03:09:34.874Z,89.77
2019-06-07T03:10:01.416Z,89.81
2019-06-07T03:10:37.616Z,89.81
2019-06-07T03:11:01.422Z,89.89
2019-06-07T03:11:38.962Z,89.96
2019-06-07T03:12:01.433Z,90.03
2019-06-07T03:12:34.027Z,90.03
2019-06-07T03:13:01.415Z,90.06
2019-06-07T03:13:38.462Z,90.08
2019-06-07T03:14:01.419Z,90.03
2019-06-07T03:14:36.477Z,89.98
2019-06-07T03:15:01.419Z,89.98
2019-06-07T03:15:42.645Z,89.94
2019-06-07T03:16:01.422Z,89.91
2019-06-07T03:16:34.459Z,89.86
2019-06-07T03:17:01.421Z,89.86
2019-06-07T03:17:36.410Z,89.82
2019-06-07T03:18:01.469Z,89.81
2019-06-07T03:18:34.308Z,89.83
2019-06-07T03:19:01.420Z,89.77
2019-06-07T03:19:36.437Z,89.79
2019-06-07T03:20:01.529Z,89.76
2019-06-07T03:20:34.968Z,89.82
2019-06-07T03:21:06.158Z,89.85
2019-06-07T03:21:33.745Z,89.84
2019-06-07T03:22:01.422Z,89.87
2019-06-07T03:22:35.767Z,89.90
2019-06-07T03:23:01.426Z,89.94
2019-06-07T03:23:34.307Z,89.97
2019-06-07T03:24:03.191Z,89.99
2019-06-07T03:24:36.124Z,90.02
2019-06-07T03:25:01.444Z,90.04
2019-06-07T03:25:36.753Z,90.08
2019-06-07T03:26:01.422Z,90.09
2019-06-07T03:26:35.660Z,90.12
2019-06-07T03:27:32.603Z,90.15
2019-06-07T03:27:41.195Z,90.17
2019-06-07T03:28:01.507Z,90.17
2019-06-07T03:28:35.819Z,90.24
2019-06-07T03:29:01.419Z,90.25
2019-06-07T03:29:34.331Z,90.32
2019-06-07T03:30:34.900Z,90.35
2019-06-07T03:30:47.890Z,90.39
2019-06-07T03:31:03.473Z,90.43
2019-06-07T03:31:41.318Z,90.43
2019-06-07T03:32:01.455Z,90.45
2019-06-07T03:32:45.762Z,90.46
2019-06-07T03:33:01.443Z,90.44
2019-06-07T03:33:37.182Z,90.44
2019-06-07T03:34:01.469Z,90.44
2019-06-07T03:34:40.854Z,90.43
2019-06-07T03:35:01.425Z,90.42
2019-06-07T03:35:37.665Z,90.39
2019-06-07T03:36:22.622Z,90.37
2019-06-07T03:36:34.709Z,90.36
2019-06-07T03:37:01.442Z,90.36
2019-06-07T03:37:37.487Z,90.37
2019-06-07T03:38:01.460Z,90.31
2019-06-07T03:38:35.182Z,90.34
2019-06-07T03:39:01.425Z,90.34
2019-06-07T03:39:33.659Z,90.28
2019-06-07T03:40:01.423Z,90.29
2019-06-07T03:40:36.714Z,90.26
2019-06-07T03:41:01.547Z,90.26
2019-06-07T03:41:41.859Z,90.27
2019-06-07T03:42:08.486Z,90.22
2019-06-07T03:42:34.692Z,90.24
2019-06-07T03:43:01.427Z,90.18
2019-06-07T03:43:36.575Z,90.15
2019-06-07T03:44:01.429Z,90.12
2019-06-07T03:44:36.300Z,90.07
2019-06-07T03:45:03.454Z,90.01
2019-06-07T03:45:35.884Z,90.01
2019-06-07T03:46:01.424Z,89.97
2019-06-07T03:46:35.078Z,89.90
2019-06-07T03:47:01.429Z,89.87
2019-06-07T03:47:36.380Z,89.84
2019-06-07T03:48:01.431Z,89.78
2019-06-07T03:48:36.269Z,89.77
2019-06-07T03:49:01.426Z,89.68
2019-06-07T03:49:36.375Z,89.63
2019-06-07T03:50:01.424Z,89.56
2019-06-07T03:50:36.027Z,89.51
2019-06-07T03:51:04.697Z,89.46
2019-06-07T03:51:34.992Z,89.42
2019-06-07T03:52:01.431Z,89.39
2019-06-07T03:52:39.022Z,89.37
2019-06-07T03:53:01.519Z,89.32
2019-06-07T03:53:40.716Z,89.27
2019-06-07T03:54:01.427Z,89.24
2019-06-07T03:54:34.808Z,89.20
2019-06-07T03:55:01.532Z,89.17
2019-06-07T03:55:38.974Z,89.11
2019-06-07T03:56:01.647Z,89.04
2019-06-07T03:56:38.535Z,89.02
2019-06-07T03:57:01.435Z,88.96
2019-06-07T03:58:17.649Z,88.97
2019-06-07T03:58:34.487Z,88.93
2019-06-07T03:58:40.941Z,88.90
2019-06-07T03:59:01.464Z,88.87
2019-06-07T03:59:37.344Z,88.82
2019-06-07T04:00:01.433Z,88.78
2019-06-07T04:00:36.623Z,88.75
2019-06-07T04:01:02.442Z,88.71
2019-06-07T04:01:34.811Z,88.72
2019-06-07T04:02:01.532Z,88.70
2019-06-07T04:02:37.722Z,88.59
2019-06-07T04:03:03.703Z,88.55
2019-06-07T04:03:43.362Z,88.49
2019-06-07T04:04:01.444Z,88.42
2019-06-07T04:04:36.233Z,88.32
2019-06-07T04:05:01.435Z,88.27
2019-06-07T04:05:38.523Z,88.20
2019-06-07T04:06:03.596Z,88.21
2019-06-07T04:06:36.084Z,88.21
2019-06-07T04:07:01.443Z,88.22
2019-06-07T04:07:36.058Z,88.23
2019-06-07T04:08:01.441Z,88.22
2019-06-07T04:08:34.304Z,88.22
2019-06-07T04:09:01.437Z,88.15
2019-06-07T04:09:37.082Z,88.14
2019-06-07T04:10:01.487Z,88.04
2019-06-07T04:10:48.146Z,88.00
2019-06-07T04:11:01.432Z,87.91
2019-06-07T04:11:35.061Z,87.89
2019-06-07T04:12:01.436Z,87.85
2019-06-07T04:12:35.436Z,87.79
2019-06-07T04:13:01.440Z,87.68
2019-06-07T04:13:38.276Z,87.65
2019-06-07T04:14:01.435Z,87.59
2019-06-07T04:14:38.307Z,87.59
2019-06-07T04:15:01.433Z,87.59
2019-06-07T04:15:34.375Z,87.61
2019-06-07T04:16:01.432Z,87.61
2019-06-07T04:16:40.828Z,87.56
2019-06-07T04:17:01.443Z,87.52
2019-06-07T04:17:41.432Z,87.47
2019-06-07T04:18:04.089Z,87.46
2019-06-07T04:18:35.637Z,87.41
2019-06-07T04:19:01.444Z,87.32
2019-06-07T04:19:35.718Z,87.29
2019-06-07T04:20:01.532Z,87.31
2019-06-07T04:20:34.498Z,87.31
2019-06-07T04:21:01.434Z,87.29
2019-06-07T04:21:35.001Z,87.24
2019-06-07T04:22:01.444Z,87.21
2019-06-07T04:22:36.477Z,87.17
2019-06-07T04:23:01.436Z,87.11
2019-06-07T04:23:35.775Z,87.03
2019-06-07T04:24:03.236Z,86.94
2019-06-07T04:24:34.562Z,86.90
2019-06-07T04:25:01.441Z,86.81
2019-06-07T04:25:36.796Z,86.76
2019-06-07T04:26:01.439Z,86.70
2019-06-07T04:26:34.981Z,86.67
2019-06-07T04:27:03.362Z,86.58
2019-06-07T04:27:35.539Z,86.56
2019-06-07T04:28:01.471Z,86.61
2019-06-07T04:29:24.715Z,86.61
2019-06-07T04:29:47.774Z,86.61
2019-06-07T04:30:07.669Z,86.63
2019-06-07T04:30:35.509Z,86.63
2019-06-07T04:31:01.435Z,86.56
2019-06-07T04:31:34.401Z,86.61
2019-06-07T04:32:01.437Z,86.55
2019-06-07T04:32:34.342Z,86.53
2019-06-07T04:33:01.433Z,86.48
2019-06-07T04:33:34.872Z,86.50
2019-06-07T04:34:01.461Z,86.53
2019-06-07T04:34:40.027Z,86.45
2019-06-07T04:35:01.516Z,86.43
2019-06-07T04:35:39.287Z,86.50
2019-06-07T04:36:01.435Z,86.43
2019-06-07T04:36:45.340Z,86.42
2019-06-07T04:37:01.444Z,86.43
2019-06-07T04:37:36.588Z,86.42
2019-06-07T04:38:01.508Z,86.36
2019-06-07T04:38:40.476Z,86.36
2019-06-07T04:39:01.483Z,86.31
2019-06-07T04:39:35.485Z,86.19
2019-06-07T04:40:01.472Z,86.17
2019-06-07T04:40:34.257Z,86.06
2019-06-07T04:41:01.450Z,85.91
2019-06-07T04:41:31.379Z,85.84
2019-06-07T04:42:01.441Z,85.80
2019-06-07T04:42:36.440Z,85.70
2019-06-07T04:43:01.436Z,85.56
2019-06-07T04:43:33.514Z,85.58
2019-06-07T04:44:01.468Z,85.65
2019-06-07T04:44:31.379Z,85.65
2019-06-07T04:45:03.394Z,85.61
2019-06-07T04:45:40.433Z,85.51
2019-06-07T04:46:01.476Z,85.47
2019-06-07T04:46:35.066Z,85.45
2019-06-07T04:47:01.452Z,85.40
2019-06-07T04:47:34.814Z,85.40
2019-06-07T04:48:03.365Z,85.37
2019-06-07T04:48:35.302Z,85.38
2019-06-07T04:49:01.450Z,85.37
2019-06-07T04:49:37.397Z,85.42
2019-06-07T04:50:01.443Z,85.45
2019-06-07T04:50:34.177Z,85.45
2019-06-07T04:51:01.516Z,85.51
2019-06-07T04:51:34.001Z,85.42
2019-06-07T04:52:01.450Z,85.35
2019-06-07T04:52:35.967Z,85.36
2019-06-07T04:53:01.447Z,85.37
2019-06-07T04:53:35.152Z,85.20
2019-06-07T04:54:01.446Z,85.27
2019-06-07T04:54:35.141Z,85.34
2019-06-07T04:55:01.449Z,85.26
2019-06-07T04:55:36.600Z,85.26
2019-06-07T04:56:01.441Z,85.32
2019-06-07T04:56:38.396Z,85.33
2019-06-07T04:57:01.446Z,85.38
2019-06-07T04:57:34.831Z,85.43
2019-06-07T04:58:01.450Z,85.31
2019-06-07T04:58:35.757Z,85.20
2019-06-07T04:59:01.462Z,85.20
2019-06-07T05:00:22.524Z,85.04
2019-06-07T05:00:49.532Z,84.98
2019-06-07T05:01:03.920Z,85.04
2019-06-07T05:01:34.785Z,84.98
2019-06-07T05:02:01.443Z,84.64
2019-06-07T05:02:34.554Z,84.21
2019-06-07T05:03:01.448Z,84.23
2019-06-07T05:03:35.985Z,84.44
2019-06-07T05:04:01.443Z,84.61
2019-06-07T05:04:34.883Z,84.78
2019-06-07T05:05:01.450Z,84.87
2019-06-07T05:05:34.251Z,84.89
2019-06-07T05:06:03.290Z,84.99
2019-06-07T05:06:36.230Z,85.02
2019-06-07T05:07:01.447Z,85.08
2019-06-07T05:07:35.045Z,85.14
2019-06-07T05:08:07.346Z,84.57
2019-06-07T05:08:35.508Z,83.96
2019-06-07T05:09:03.307Z,83.87
2019-06-07T05:09:36.070Z,83.85
2019-06-07T05:10:01.671Z,83.91
2019-06-07T05:10:35.026Z,83.87
2019-06-07T05:11:01.451Z,83.88
2019-06-07T05:11:33.849Z,84.18
2019-06-07T05:12:01.447Z,84.08
2019-06-07T05:12:35.968Z,84.04
2019-06-07T05:13:01.494Z,84.10
2019-06-07T05:13:35.751Z,84.28
2019-06-07T05:14:01.452Z,84.09
2019-06-07T05:14:34.552Z,84.08
2019-06-07T05:15:01.459Z,84.04
2019-06-07T05:15:32.397Z,84.06
2019-06-07T05:16:01.453Z,83.95
2019-06-07T05:16:38.750Z,83.97
2019-06-07T05:17:01.450Z,84.06
2019-06-07T05:17:36.874Z,84.22
2019-06-07T05:18:01.459Z,84.31
2019-06-07T05:18:35.610Z,84.16
2019-06-07T05:19:01.456Z,83.95
2019-06-07T05:19:39.022Z,83.86
2019-06-07T05:20:01.451Z,83.72
2019-06-07T05:20:38.458Z,83.61
2019-06-07T05:21:01.456Z,83.50
2019-06-07T05:21:52.738Z,83.53
2019-06-07T05:22:05.183Z,83.50
2019-06-07T05:22:34.776Z,83.58
2019-06-07T05:23:01.458Z,83.83
2019-06-07T05:24:09.405Z,83.93
2019-06-07T05:24:35.469Z,83.54
2019-06-07T05:25:01.451Z,83.48
2019-06-07T05:25:34.100Z,83.45
2019-06-07T05:26:01.454Z,83.53
2019-06-07T05:26:35.888Z,83.61
2019-06-07T05:27:03.306Z,83.55
2019-06-07T05:27:34.267Z,83.23
2019-06-07T05:28:01.453Z,83.18
2019-06-07T05:28:35.086Z,83.22
2019-06-07T05:29:01.456Z,83.34
2019-06-07T05:29:36.752Z,83.39
2019-06-07T05:30:13.486Z,83.33
2019-06-07T05:31:01.822Z,83.38
2019-06-07T05:31:07.952Z,83.53
2019-06-07T05:31:35.733Z,83.62
2019-06-07T05:32:01.462Z,83.98
2019-06-07T05:32:34.900Z,84.09
2019-06-07T05:33:01.454Z,84.07
2019-06-07T05:33:35.438Z,83.75
2019-06-07T05:34:01.455Z,83.73
2019-06-07T05:34:34.496Z,83.88
2019-06-07T05:35:01.501Z,83.82
2019-06-07T05:35:32.956Z,83.71
2019-06-07T05:36:01.457Z,83.83
2019-06-07T05:36:36.576Z,84.08
2019-06-07T05:37:11.335Z,84.21
2019-06-07T05:37:35.693Z,84.24
2019-06-07T05:38:01.460Z,84.26
2019-06-07T05:38:31.400Z,84.18
2019-06-07T05:39:01.499Z,83.99
2019-06-07T05:39:36.784Z,83.88
2019-06-07T05:40:01.461Z,84.14
2019-06-07T05:40:36.242Z,84.54
2019-06-07T05:41:01.550Z,84.79
2019-06-07T05:41:41.108Z,85.09
2019-06-07T05:42:01.456Z,85.30
2019-06-07T05:42:34.550Z,85.20
2019-06-07T05:43:01.459Z,85.17
2019-06-07T05:43:34.858Z,85.33
2019-06-07T05:44:12.414Z,85.35
2019-06-07T05:44:34.043Z,85.28
2019-06-07T05:45:01.468Z,85.05
2019-06-07T05:45:35.672Z,84.68
2019-06-07T05:46:01.458Z,84.58
2019-06-07T05:46:37.863Z,84.49
2019-06-07T05:47:01.456Z,84.46
2019-06-07T05:47:37.060Z,84.50
2019-06-07T05:48:03.304Z,84.50
2019-06-07T05:48:32.404Z,84.49
2019-06-07T05:49:01.457Z,84.45
2019-06-07T05:49:35.555Z,84.72
2019-06-07T05:50:01.482Z,85.02
2019-06-07T05:50:41.271Z,85.21
2019-06-07T05:51:03.174Z,84.79
2019-06-07T05:51:32.447Z,84.71
2019-06-07T05:52:01.455Z,84.43
2019-06-07T05:52:36.167Z,84.45
2019-06-07T05:53:01.465Z,84.31
2019-06-07T05:53:34.704Z,84.59
2019-06-07T05:54:01.469Z,85.02
2019-06-07T05:54:35.092Z,85.14
2019-06-07T05:55:01.476Z,84.86
2019-06-07T05:55:32.631Z,84.94
2019-06-07T05:56:01.453Z,84.97
2019-06-07T05:56:33.170Z,84.97
2019-06-07T05:57:01.464Z,84.65
2019-06-07T05:57:31.431Z,84.73
2019-06-07T05:58:01.455Z,84.65
2019-06-07T05:58:33.119Z,84.59
2019-06-07T05:59:01.459Z,84.64
2019-06-07T05:59:31.429Z,84.78
2019-06-07T06:00:01.462Z,84.74
2019-06-07T06:00:31.405Z,84.55
2019-06-07T06:01:41.346Z,84.59
2019-06-07T06:01:43.483Z,84.49
2019-06-07T06:02:21.422Z,84.29
2019-06-07T06:02:31.400Z,84.47
2019-06-07T06:03:05.565Z,84.60
2019-06-07T06:03:31.406Z,84.82
2019-06-07T06:04:01.568Z,84.64
2019-06-07T06:04:31.404Z,84.57
2019-06-07T06:05:01.551Z,84.36
2019-06-07T06:05:38.171Z,84.38
2019-06-07T06:06:01.466Z,84.55
2019-06-07T06:06:31.435Z,84.57
2019-06-07T06:07:01.464Z,84.44
2019-06-07T06:07:31.407Z,84.44
2019-06-07T06:08:01.530Z,84.61
2019-06-07T06:08:31.506Z,84.36
2019-06-07T06:09:13.639Z,84.56
2019-06-07T06:09:31.413Z,84.37
2019-06-07T06:10:01.467Z,84.43
2019-06-07T06:10:31.409Z,84.51
2019-06-07T06:11:01.466Z,84.24
2019-06-07T06:11:44.251Z,84.20
2019-06-07T06:12:03.342Z,84.27
2019-06-07T06:12:37.101Z,84.15
2019-06-07T06:13:01.481Z,84.12
2019-06-07T06:13:31.405Z,84.29
2019-06-07T06:14:07.776Z,84.44
2019-06-07T06:14:31.403Z,84.38
2019-06-07T06:15:01.487Z,84.51
2019-06-07T06:15:45.050Z,84.12
2019-06-07T06:16:03.490Z,84.13
2019-06-07T06:16:31.403Z,83.89
2019-06-07T06:17:01.467Z,83.86
2019-06-07T06:17:31.417Z,83.99
2019-06-07T06:18:01.469Z,84.32
2019-06-07T06:18:31.407Z,84.70
2019-06-07T06:19:01.470Z,84.46
2019-06-07T06:19:33.316Z,84.24
2019-06-07T06:20:01.487Z,84.30
2019-06-07T06:21:00.710Z,84.54
2019-06-07T06:21:17.196Z,84.44
2019-06-07T06:21:31.407Z,84.13
2019-06-07T06:22:01.521Z,83.81
2019-06-07T06:22:33.165Z,83.56
2019-06-07T06:23:01.469Z,83.58
2019-06-07T06:23:31.408Z,83.44
2019-06-07T06:24:01.470Z,83.33
2019-06-07T06:24:31.463Z,83.29
2019-06-07T06:25:33.318Z,83.24
2019-06-07T06:25:34.340Z,83.34
2019-06-07T06:26:01.467Z,83.49
2019-06-07T06:26:31.450Z,83.24
2019-06-07T06:27:18.834Z,83.26
2019-06-07T06:28:02.434Z,83.39
2019-06-07T06:28:11.385Z,83.33
2019-06-07T06:28:31.414Z,83.36
2019-06-07T06:29:01.587Z,83.42